Terminal Aerodrome Forecast
Issued by NWS Grand Forks, ND

Home | Current Version | Previous Version | Text Only | Print | Product List | Glossary Off
Versions: 1 2 3 4 5 6 7 8 9 10 11 12 13 14 15 16

000
FTUS43 KFGF 180500
TAFGFK
TAF
KGFK 180520Z 1806/1906 31010KT P6SM BKN060
     FM181200 26008KT P6SM SCT035 BKN120
     FM181800 20010KT P6SM BKN250
     FM190300 30011KT P6SM BKN025=

USA.gov is the U.S. government's official web portal to all federal, state and local government web resources and services.